Time,TemperatureF,DewpointF,PressureIn,WindDirection,WindDirectionDegrees,WindSpeedMPH,WindSpeedGustMPH,Humidity,HourlyPrecipIn,Conditions,Clouds,dailyrainin,SoftwareType,DateUTC
2013-03-22 00:05:00,-12.2,-20.4,29.96,NE,46,0.0,1.0,66,0.00,,,0.00,Wunderground v.1.15,2013-03-22 08:05:00,
2013-03-22 00:15:00,-12.2,-21.0,29.96,NE,50,1.0,1.0,64,0.00,,,0.00,Wunderground v.1.15,2013-03-22 08:15:00,
2013-03-22 00:20:00,-11.7,-19.9,29.96,NE,50,0.0,0.0,66,0.00,,,0.00,Wunderground v.1.15,2013-03-22 08:20:00,
2013-03-22 00:30:00,-13.3,-22.3,29.96,NE,44,0.0,0.0,63,0.00,,,0.00,Wunderground v.1.15,2013-03-22 08:30:00,
2013-03-22 00:35:00,-13.3,-21.4,29.96,NE,44,0.0,0.0,66,0.00,,,0.00,Wunderground v.1.15,2013-03-22 08:35:00,
2013-03-22 00:45:00,-14.3,-23.0,29.96,NE,44,0.0,2.0,64,0.00,,,0.00,Wunderground v.1.15,2013-03-22 08:45:00,
2013-03-22 00:55:00,-14.3,-22.1,29.96,NE,47,0.0,0.0,67,0.00,,,0.00,Wunderground v.1.15,2013-03-22 08:55:00,
2013-03-22 01:00:00,-13.8,-21.6,29.97,NE,47,0.0,0.0,67,0.00,,,0.00,Wunderground v.1.15,2013-03-22 09:00:00,
2013-03-22 01:10:00,-13.8,-22.2,29.97,NE,47,0.0,0.0,65,0.00,,,0.00,Wunderground v.1.15,2013-03-22 09:10:00,
2013-03-22 01:20:00,-15.6,-23.6,29.97,NE,47,0.0,0.0,66,0.00,,,0.00,Wunderground v.1.15,2013-03-22 09:20:00,
2013-03-22 01:25:00,-13.0,-20.3,29.97,ENE,78,1.0,2.0,69,0.00,,,0.00,Wunderground v.1.15,2013-03-22 09:25:00,
2013-03-22 01:35:00,-11.7,-20.2,29.97,ENE,77,1.0,1.0,65,0.00,,,0.00,Wunderground v.1.15,2013-03-22 09:35:00,
2013-03-22 01:45:00,-13.8,-22.8,29.97,ENE,77,0.0,1.0,63,0.00,,,0.00,Wunderground v.1.15,2013-03-22 09:45:00,
2013-03-22 01:55:00,-13.5,-21.6,29.97,SSW,196,0.0,6.0,66,0.00,,,0.00,Wunderground v.1.15,2013-03-22 09:55:00,
2013-03-22 02:00:00,-12.5,-20.7,29.97,SE,145,1.0,1.0,66,0.00,,,0.00,Wunderground v.1.15,2013-03-22 10:00:00,
2013-03-22 02:05:00,-12.8,-22.4,29.97,East,85,1.0,1.0,61,0.00,,,0.00,Wunderground v.1.15,2013-03-22 10:05:00,
2013-03-22 02:15:00,-14.6,-23.9,29.97,NNE,22,1.0,1.0,62,0.00,,,0.00,Wunderground v.1.15,2013-03-22 10:15:00,
2013-03-22 02:25:00,-15.8,-24.7,29.97,NNE,22,0.0,0.0,63,0.00,,,0.00,Wunderground v.1.15,2013-03-22 10:25:00,
2013-03-22 02:35:00,-15.1,-22.6,29.97,NNE,23,0.0,0.0,68,0.00,,,0.00,Wunderground v.1.15,2013-03-22 10:35:00,
2013-03-22 02:40:00,-13.8,-22.5,29.97,NNE,23,0.0,0.0,64,0.00,,,0.00,Wunderground v.1.15,2013-03-22 10:40:00,
2013-03-22 02:50:00,-14.3,-23.0,29.98,NNE,23,0.0,1.0,64,0.00,,,0.00,Wunderground v.1.15,2013-03-22 10:50:00,
2013-03-22 02:55:00,-14.6,-23.3,29.98,NNE,23,1.0,1.0,64,0.00,,,0.00,Wunderground v.1.15,2013-03-22 10:55:00,
2013-03-22 03:05:00,-14.6,-23.6,29.98,NNE,30,0.0,2.0,63,0.00,,,0.00,Wunderground v.1.15,2013-03-22 11:05:00,
2013-03-22 03:15:00,-14.0,-23.6,29.98,NNE,29,1.0,2.0,61,0.00,,,0.00,Wunderground v.1.15,2013-03-22 11:15:00,
2013-03-22 03:25:00,-14.6,-24.2,29.98,NNE,29,0.0,0.0,61,0.00,,,0.00,Wunderground v.1.15,2013-03-22 11:25:00,
2013-03-22 03:30:00,-15.6,-24.5,29.98,NNE,29,0.0,0.0,63,0.00,,,0.00,Wunderground v.1.15,2013-03-22 11:30:00,
2013-03-22 03:40:00,-15.3,-23.1,29.98,NNE,29,0.0,3.0,67,0.00,,,0.00,Wunderground v.1.15,2013-03-22 11:40:00,
2013-03-22 03:50:00,-16.9,-26.4,29.98,NW,324,1.0,1.0,61,0.00,,,0.00,Wunderground v.1.15,2013-03-22 11:50:00,
2013-03-22 04:00:00,-17.5,-26.0,29.98,NW,324,1.0,1.0,64,0.00,,,0.00,Wunderground v.1.15,2013-03-22 12:00:00,
2013-03-22 04:10:00,-16.9,-26.4,29.98,NW,325,0.0,2.0,61,0.00,,,0.00,Wunderground v.1.15,2013-03-22 12:10:00,
2013-03-22 04:20:00,-16.6,-26.1,29.98,NNW,330,0.0,0.0,61,0.00,,,0.00,Wunderground v.1.15,2013-03-22 12:20:00,
2013-03-22 04:30:00,-15.8,-25.0,29.98,NNW,330,0.0,0.0,62,0.00,,,0.00,Wunderground v.1.15,2013-03-22 12:30:00,
2013-03-22 04:40:00,-14.6,-24.2,29.98,NNW,330,1.0,1.0,61,0.00,,,0.00,Wunderground v.1.15,2013-03-22 12:40:00,
2013-03-22 04:50:00,-12.5,-22.2,29.98,NNW,347,2.0,2.0,61,0.00,,,0.00,Wunderground v.1.15,2013-03-22 12:50:00,
2013-03-22 04:55:00,-13.0,-23.0,29.98,NNW,347,1.0,2.0,60,0.00,,,0.00,Wunderground v.1.15,2013-03-22 12:55:00,
2013-03-22 05:05:00,-15.3,-26.1,29.98,SSE,156,2.0,2.0,57,0.00,,,0.00,Wunderground v.1.15,2013-03-22 13:05:00,
2013-03-22 05:15:00,-14.3,-23.6,29.98,SW,232,1.0,2.0,62,0.00,,,0.00,Wunderground v.1.15,2013-03-22 13:15:00,
2013-03-22 05:25:00,-11.7,-21.4,29.98,NE,43,3.0,3.0,61,0.00,,,0.00,Wunderground v.1.15,2013-03-22 13:25:00,
2013-03-22 05:30:00,-11.0,-21.7,29.98,NNE,15,5.0,5.0,58,0.00,,,0.00,Wunderground v.1.15,2013-03-22 13:30:00,
2013-03-22 05:40:00,-12.2,-22.5,29.98,NNE,32,2.0,2.0,59,0.00,,,0.00,Wunderground v.1.15,2013-03-22 13:40:00,
2013-03-22 05:50:00,-13.0,-23.0,29.99,NNE,32,1.0,1.0,60,0.00,,,0.00,Wunderground v.1.15,2013-03-22 13:50:00,
2013-03-22 06:00:00,-13.0,-23.0,29.99,NE,36,1.0,1.0,60,0.00,,,0.00,Wunderground v.1.15,2013-03-22 14:00:00,
2013-03-22 06:10:00,-13.3,-23.6,29.99,NE,37,2.0,2.0,59,0.00,,,0.00,Wunderground v.1.15,2013-03-22 14:10:00,
2013-03-22 06:20:00,-14.0,-24.5,29.99,NE,37,1.0,1.0,58,0.00,,,0.00,Wunderground v.1.15,2013-03-22 14:20:00,
2013-03-22 06:30:00,-13.8,-23.4,29.99,NE,37,1.0,1.0,61,0.00,,,0.00,Wunderground v.1.15,2013-03-22 14:30:00,
2013-03-22 06:40:00,-15.1,-26.2,29.99,ESE,105,1.0,1.0,56,0.00,,,0.00,Wunderground v.1.15,2013-03-22 14:40:00,
2013-03-22 06:45:00,-14.6,-23.9,29.99,ESE,105,1.0,3.0,62,0.00,,,0.00,Wunderground v.1.15,2013-03-22 14:45:00,
2013-03-22 06:55:00,-16.4,-26.8,29.99,East,80,1.0,5.0,58,0.00,,,0.00,Wunderground v.1.15,2013-03-22 14:55:00,
2013-03-22 07:00:00,-17.5,-26.9,29.99,East,83,1.0,1.0,61,0.00,,,0.00,Wunderground v.1.15,2013-03-22 15:00:00,
2013-03-22 07:10:00,-18.1,-27.8,29.99,East,83,0.0,1.0,60,0.00,,,0.00,Wunderground v.1.15,2013-03-22 15:10:00,
2013-03-22 07:20:00,-19.3,-28.6,30.00,ESE,122,2.0,2.0,61,0.00,,,0.00,Wunderground v.1.15,2013-03-22 15:20:00,
2013-03-22 07:30:00,-20.5,-29.5,30.01,ESE,121,1.0,1.0,62,0.00,,,0.00,Wunderground v.1.15,2013-03-22 15:30:00,
2013-03-22 07:40:00,-19.3,-28.3,30.01,ESE,114,1.0,2.0,62,0.00,,,0.00,Wunderground v.1.15,2013-03-22 15:40:00,
2013-03-22 07:45:00,-19.9,-29.2,30.00,ESE,112,1.0,2.0,61,0.00,,,0.00,Wunderground v.1.15,2013-03-22 15:45:00,
2013-03-22 07:55:00,-18.7,-26.3,30.00,ESE,112,0.0,1.0,67,0.00,,,0.00,Wunderground v.1.15,2013-03-22 15:55:00,
2013-03-22 08:05:00,-18.1,-26.9,30.00,ESE,112,0.0,1.0,63,0.00,,,0.00,Wunderground v.1.15,2013-03-22 16:05:00,
2013-03-22 08:15:00,-17.8,-27.2,30.00,ESE,112,0.0,0.0,61,0.00,,,0.00,Wunderground v.1.15,2013-03-22 16:15:00,
2013-03-22 08:20:00,-19.0,-28.7,30.00,ESE,112,1.0,1.0,60,0.00,,,0.00,Wunderground v.1.15,2013-03-22 16:20:00,
2013-03-22 08:30:00,-18.4,-27.5,30.01,ESE,109,1.0,1.0,62,0.00,,,0.00,Wunderground v.1.15,2013-03-22 16:30:00,
2013-03-22 08:40:00,-18.4,-27.8,30.01,ESE,109,0.0,0.0,61,0.00,,,0.00,Wunderground v.1.15,2013-03-22 16:40:00,
2013-03-22 08:50:00,-20.8,-30.1,30.01,ESE,109,0.0,0.0,61,0.00,,,0.00,Wunderground v.1.15,2013-03-22 16:50:00,
2013-03-22 09:00:00,-20.5,-29.5,30.01,ESE,109,0.0,0.0,62,0.00,,,0.00,Wunderground v.1.15,2013-03-22 17:00:00,
2013-03-22 09:05:00,-20.5,-29.2,30.01,ESE,109,0.0,0.0,63,0.00,,,0.00,Wunderground v.1.15,2013-03-22 17:05:00,
2013-03-22 09:15:00,-21.1,-30.1,30.01,ESE,109,1.0,1.0,62,0.00,,,0.00,Wunderground v.1.15,2013-03-22 17:15:00,
2013-03-22 09:20:00,-21.7,-30.6,30.01,ESE,109,1.0,1.0,62,0.00,,,0.00,Wunderground v.1.15,2013-03-22 17:20:00,
2013-03-22 09:25:00,-22.0,-31.2,30.01,ESE,111,1.0,3.0,61,0.00,,,0.00,Wunderground v.1.15,2013-03-22 17:25:00,
2013-03-22 09:35:00,-21.1,-29.2,30.01,ESE,115,1.0,1.0,65,0.00,,,0.00,Wunderground v.1.15,2013-03-22 17:35:00,
2013-03-22 09:45:00,-20.2,-29.5,30.01,ESE,115,0.0,0.0,61,0.00,,,0.00,Wunderground v.1.15,2013-03-22 17:45:00,
2013-03-22 09:55:00,-19.9,-28.6,30.01,ESE,115,0.0,0.0,63,0.00,,,0.00,Wunderground v.1.15,2013-03-22 17:55:00,
2013-03-22 10:05:00,-20.2,-30.1,30.02,ESE,115,0.0,0.0,59,0.00,,,0.00,Wunderground v.1.15,2013-03-22 18:05:00,
2013-03-22 10:15:00,-19.9,-29.8,30.01,ESE,116,1.0,1.0,59,0.00,,,0.00,Wunderground v.1.15,2013-03-22 18:15:00,
2013-03-22 10:25:00,-18.1,-27.5,30.01,ESE,116,0.0,0.0,61,0.00,,,0.00,Wunderground v.1.15,2013-03-22 18:25:00,
2013-03-22 10:30:00,-16.6,-26.4,30.01,ESE,116,0.0,0.0,60,0.00,,,0.00,Wunderground v.1.15,2013-03-22 18:30:00,
2013-03-22 10:40:00,-17.2,-27.9,30.01,ESE,122,1.0,1.0,57,0.00,,,0.00,Wunderground v.1.15,2013-03-22 18:40:00,
2013-03-22 10:45:00,-15.8,-26.2,30.01,ESE,122,1.0,1.0,58,0.00,,,0.00,Wunderground v.1.15,2013-03-22 18:45:00,
2013-03-22 10:55:00,-14.3,-25.8,30.01,ESE,122,0.0,1.0,55,0.00,,,0.00,Wunderground v.1.15,2013-03-22 18:55:00,
2013-03-22 11:05:00,-13.5,-25.8,30.02,East,100,0.0,1.0,53,0.00,,,0.00,Wunderground v.1.15,2013-03-22 19:05:00,
2013-03-22 11:15:00,-9.6,-20.7,30.01,North,355,2.0,7.0,57,0.00,,,0.00,Wunderground v.1.15,2013-03-22 19:15:00,
2013-03-22 11:25:00,-8.6,-22.3,30.01,ENE,74,3.0,5.0,50,0.00,,,0.00,Wunderground v.1.15,2013-03-22 19:25:00,
2013-03-22 11:35:00,-7.2,-19.9,30.00,ESE,118,4.0,4.0,53,0.00,,,0.00,Wunderground v.1.15,2013-03-22 19:35:00,
2013-03-22 11:40:00,-7.2,-19.1,30.00,NNE,23,4.0,4.0,55,0.00,,,0.00,Wunderground v.1.15,2013-03-22 19:40:00,
2013-03-22 11:50:00,-5.4,-16.4,30.00,NNE,22,4.0,4.0,58,0.00,,,0.00,Wunderground v.1.15,2013-03-22 19:50:00,
2013-03-22 12:00:00,-5.2,-16.2,30.01,NNW,345,5.0,6.0,58,0.00,,,0.00,Wunderground v.1.15,2013-03-22 20:00:00,
2013-03-22 12:10:00,-4.3,-15.4,30.01,East,83,9.0,9.0,58,0.00,,,0.00,Wunderground v.1.15,2013-03-22 20:10:00,
2013-03-22 12:20:00,-3.9,-15.3,29.99,NE,40,9.0,9.0,57,0.00,,,0.00,Wunderground v.1.15,2013-03-22 20:20:00,
2013-03-22 12:30:00,-3.7,-15.5,30.01,East,83,6.0,6.0,56,0.00,,,0.00,Wunderground v.1.15,2013-03-22 20:30:00,
2013-03-22 12:40:00,-3.3,-16.2,30.01,NE,56,3.0,3.0,53,0.00,,,0.00,Wunderground v.1.15,2013-03-22 20:40:00,
2013-03-22 12:50:00,-2.0,-16.5,30.01,ENE,70,5.0,5.0,49,0.00,,,0.00,Wunderground v.1.15,2013-03-22 20:50:00,
2013-03-22 13:00:00,-1.8,-15.2,30.01,NE,53,6.0,6.0,52,0.00,,,0.00,Wunderground v.1.15,2013-03-22 21:00:00,
2013-03-22 13:10:00,-2.4,-15.0,30.01,East,84,7.0,13.0,54,0.00,,,0.00,Wunderground v.1.15,2013-03-22 21:10:00,
2013-03-22 13:15:00,-2.0,-14.6,30.01,ENE,57,9.0,13.0,54,0.00,,,0.00,Wunderground v.1.15,2013-03-22 21:15:00,
2013-03-22 13:25:00,-2.4,-14.3,30.01,NE,47,8.0,12.0,56,0.00,,,0.00,Wunderground v.1.15,2013-03-22 21:25:00,
2013-03-22 13:35:00,-2.0,-13.5,30.01,NE,56,7.0,9.0,57,0.00,,,0.00,Wunderground v.1.15,2013-03-22 21:35:00,
2013-03-22 13:40:00,-1.6,-13.9,30.01,ENE,67,9.0,12.0,55,0.00,,,0.00,Wunderground v.1.15,2013-03-22 21:40:00,
2013-03-22 13:45:00,-1.2,-14.6,30.01,ENE,76,11.0,12.0,52,0.00,,,0.00,Wunderground v.1.15,2013-03-22 21:45:00,
2013-03-22 13:55:00,-1.8,-14.4,30.01,ENE,66,10.0,11.0,54,0.00,,,0.00,Wunderground v.1.15,2013-03-22 21:55:00,
2013-03-22 14:05:00,-1.6,-13.5,30.01,NE,53,10.0,22.0,56,0.00,,,0.00,Wunderground v.1.15,2013-03-22 22:05:00,
2013-03-22 14:15:00,-1.6,-14.6,30.01,ENE,64,14.0,19.0,53,0.00,,,0.00,Wunderground v.1.15,2013-03-22 22:15:00,
2013-03-22 14:25:00,-0.8,-14.2,30.01,East,88,12.0,17.0,52,0.00,,,0.00,Wunderground v.1.15,2013-03-22 22:25:00,
2013-03-22 14:35:00,-1.2,-14.6,30.00,NE,46,15.0,17.0,52,0.00,,,0.00,Wunderground v.1.15,2013-03-22 22:35:00,
2013-03-22 14:45:00,-1.6,-13.9,30.01,ENE,78,13.0,16.0,55,0.00,,,0.00,Wunderground v.1.15,2013-03-22 22:45:00,
2013-03-22 14:50:00,-2.0,-14.2,30.01,ENE,71,14.0,20.0,55,0.00,,,0.00,Wunderground v.1.15,2013-03-22 22:50:00,
2013-03-22 15:00:00,-1.8,-14.1,30.00,ENE,66,16.0,16.0,55,0.00,,,0.00,Wunderground v.1.15,2013-03-22 23:00:00,
2013-03-22 15:05:00,-1.8,-14.1,30.00,ENE,57,14.0,19.0,55,0.00,,,0.00,Wunderground v.1.15,2013-03-22 23:05:00,
2013-03-22 15:14:00,-2.0,-14.2,30.00,ENE,61,16.0,17.0,55,0.00,,,0.00,Wunderground v.1.15,2013-03-22 23:14:00,
2013-03-22 15:20:00,-2.0,-14.2,30.00,ENE,66,17.0,17.0,55,0.00,,,0.00,Wunderground v.1.15,2013-03-22 23:20:00,
2013-03-22 15:25:00,-1.6,-13.9,30.00,ENE,63,16.0,17.0,55,0.00,,,0.00,Wunderground v.1.15,2013-03-22 23:25:00,
2013-03-22 15:35:00,-0.8,-13.9,30.00,ENE,71,16.0,16.0,53,0.00,,,0.00,Wunderground v.1.15,2013-03-22 23:35:00,
2013-03-22 15:45:00,-1.2,-13.5,29.99,NE,56,16.0,17.0,55,0.00,,,0.00,Wunderground v.1.15,2013-03-22 23:45:00,
2013-03-22 15:55:00,-1.0,-13.3,29.99,ENE,70,17.0,17.0,55,0.00,,,0.00,Wunderground v.1.15,2013-03-22 23:55:00,
2013-03-22 16:05:00,-1.8,-13.7,29.99,ENE,66,17.0,19.0,56,0.00,,,0.00,Wunderground v.1.15,2013-03-23 00:05:00,
2013-03-22 16:15:00,-1.8,-13.3,29.99,ENE,71,18.0,25.0,57,0.00,,,0.00,Wunderground v.1.15,2013-03-23 00:15:00,
2013-03-22 16:25:00,-2.4,-13.6,29.99,ENE,73,19.0,20.0,58,0.00,,,0.00,Wunderground v.1.15,2013-03-23 00:25:00,
2013-03-22 16:35:00,-2.8,-13.6,29.98,East,94,18.0,18.0,59,0.00,,,0.00,Wunderground v.1.15,2013-03-23 00:35:00,
2013-03-22 16:45:00,-2.6,-13.1,29.98,ENE,67,18.0,24.0,60,0.00,,,0.00,Wunderground v.1.15,2013-03-23 00:45:00,
2013-03-22 16:50:00,-2.6,-13.4,29.98,ENE,68,18.0,18.0,59,0.00,,,0.00,Wunderground v.1.15,2013-03-23 00:50:00,
2013-03-22 17:00:00,-2.4,-13.6,29.98,ENE,68,18.0,20.0,58,0.00,,,0.00,Wunderground v.1.15,2013-03-23 01:00:00,
2013-03-22 17:10:00,-2.4,-13.6,29.98,ENE,71,16.0,17.0,58,0.00,,,0.00,Wunderground v.1.15,2013-03-23 01:10:00,
2013-03-22 17:20:00,-2.8,-14.3,29.99,ENE,66,16.0,16.0,57,0.00,,,0.00,Wunderground v.1.15,2013-03-23 01:20:00,
2013-03-22 17:30:00,-3.1,-14.6,29.99,NE,54,15.0,15.0,57,0.00,,,0.00,Wunderground v.1.15,2013-03-23 01:30:00,
2013-03-22 17:35:00,-2.8,-13.9,29.99,ENE,63,14.0,17.0,58,0.00,,,0.00,Wunderground v.1.15,2013-03-23 01:35:00,
2013-03-22 17:45:00,-2.8,-14.3,29.98,East,84,16.0,18.0,57,0.00,,,0.00,Wunderground v.1.15,2013-03-23 01:45:00,
2013-03-22 17:50:00,-2.8,-14.6,29.98,NNE,16,14.0,14.0,56,0.00,,,0.00,Wunderground v.1.15,2013-03-23 01:50:00,
2013-03-22 18:00:00,-2.8,-14.6,29.99,ENE,67,13.0,14.0,56,0.00,,,0.00,Wunderground v.1.15,2013-03-23 02:00:00,
2013-03-22 18:10:00,-2.8,-14.6,29.99,East,80,15.0,21.0,56,0.00,,,0.00,Wunderground v.1.15,2013-03-23 02:10:00,
2013-03-22 18:19:00,-3.5,-15.0,29.99,East,87,13.0,13.0,57,0.00,,,0.00,Wunderground v.1.15,2013-03-23 02:19:00,
2013-03-22 18:29:00,-3.5,-15.0,29.98,ENE,76,14.0,14.0,57,0.00,,,0.00,Wunderground v.1.15,2013-03-23 02:29:00,
2013-03-22 18:35:00,-3.3,-15.1,29.98,ENE,66,14.0,14.0,56,0.00,,,0.00,Wunderground v.1.15,2013-03-23 02:35:00,
2013-03-22 18:44:00,-3.5,-15.3,29.99,NNE,30,11.0,12.0,56,0.00,,,0.00,Wunderground v.1.15,2013-03-23 02:44:00,
2013-03-22 18:55:00,-3.7,-15.5,29.99,ENE,71,7.0,10.0,56,0.00,,,0.00,Wunderground v.1.15,2013-03-23 02:55:00,
2013-03-22 19:05:00,-3.5,-15.7,30.00,NNW,334,5.0,5.0,55,0.00,,,0.00,Wunderground v.1.15,2013-03-23 03:05:00,
2013-03-22 19:14:00,-2.2,-14.8,29.99,NW,316,2.0,5.0,54,0.00,,,0.00,Wunderground v.1.15,2013-03-23 03:14:00,
2013-03-22 19:24:00,-2.6,-15.2,29.99,ENE,73,4.0,6.0,54,0.00,,,0.00,Wunderground v.1.15,2013-03-23 03:24:00,
2013-03-22 19:34:00,-2.6,-15.5,29.98,ENE,70,7.0,7.0,53,0.00,,,0.00,Wunderground v.1.15,2013-03-23 03:34:00,
2013-03-22 19:44:00,-2.8,-15.4,29.99,ENE,73,4.0,5.0,54,0.00,,,0.00,Wunderground v.1.15,2013-03-23 03:44:00,
2013-03-22 19:54:00,-3.7,-16.2,29.99,NNE,32,8.0,10.0,54,0.00,,,0.00,Wunderground v.1.15,2013-03-23 03:54:00,
2013-03-22 20:00:00,-3.9,-16.0,29.98,ENE,59,8.0,8.0,55,0.00,,,0.00,Wunderground v.1.15,2013-03-23 04:00:00,
2013-03-22 20:04:00,-4.1,-16.2,29.98,NE,39,6.0,8.0,55,0.00,,,0.00,Wunderground v.1.15,2013-03-23 04:04:00,
2013-03-22 20:14:00,-4.6,-16.7,29.98,NNE,18,8.0,12.0,55,0.00,,,0.00,Wunderground v.1.15,2013-03-23 04:14:00,
2013-03-22 20:24:00,-4.8,-16.2,29.98,North,355,9.0,17.0,57,0.00,,,0.00,Wunderground v.1.15,2013-03-23 04:24:00,
2013-03-22 20:30:00,-4.8,-16.5,29.98,NNE,22,11.0,11.0,56,0.00,,,0.00,Wunderground v.1.15,2013-03-23 04:30:00,
2013-03-22 20:39:00,-4.8,-16.2,29.98,NE,47,9.0,10.0,57,0.00,,,0.00,Wunderground v.1.15,2013-03-23 04:39:00,
2013-03-22 20:49:00,-5.4,-16.4,29.98,NNE,22,9.0,11.0,58,0.00,,,0.00,Wunderground v.1.15,2013-03-23 04:49:00,
2013-03-22 20:54:00,-6.1,-16.7,29.98,North,11,9.0,11.0,59,0.00,,,0.00,Wunderground v.1.15,2013-03-23 04:54:00,
2013-03-22 21:04:00,-5.2,-16.2,29.98,NNE,29,8.0,9.0,58,0.00,,,0.00,Wunderground v.1.15,2013-03-23 05:04:00,
2013-03-22 21:14:00,-3.5,-15.7,29.98,NNE,33,7.0,7.0,55,0.00,,,0.00,Wunderground v.1.15,2013-03-23 05:14:00,
2013-03-22 21:19:00,-4.3,-16.4,29.98,ENE,63,6.0,6.0,55,0.00,,,0.00,Wunderground v.1.15,2013-03-23 05:19:00,
2013-03-22 21:29:00,-6.5,-17.4,29.99,North,6,3.0,3.0,58,0.00,,,0.00,Wunderground v.1.15,2013-03-23 05:29:00,
2013-03-22 21:39:00,-6.1,-17.1,29.99,NNE,23,7.0,7.0,58,0.00,,,0.00,Wunderground v.1.15,2013-03-23 05:39:00,
2013-03-22 21:49:00,-7.0,-17.6,30.00,NE,35,2.0,2.0,59,0.00,,,0.00,Wunderground v.1.15,2013-03-23 05:49:00,
2013-03-22 21:55:00,-7.0,-17.9,30.00,NE,36,2.0,2.0,58,0.00,,,0.00,Wunderground v.1.15,2013-03-23 05:55:00,
2013-03-22 22:04:00,-7.7,-18.2,29.99,North,351,1.0,2.0,59,0.00,,,0.00,Wunderground v.1.15,2013-03-23 06:04:00,
2013-03-22 22:14:00,-9.3,-20.1,29.99,North,349,1.0,6.0,58,0.00,,,0.00,Wunderground v.1.15,2013-03-23 06:14:00,
2013-03-22 22:19:00,-10.5,-20.9,29.99,NNW,347,1.0,1.0,59,0.00,,,0.00,Wunderground v.1.15,2013-03-23 06:19:00,
2013-03-22 22:25:00,-10.7,-21.1,29.99,North,349,0.0,1.0,59,0.00,,,0.00,Wunderground v.1.15,2013-03-23 06:25:00,
2013-03-22 22:35:00,-11.0,-20.7,29.99,WNW,297,2.0,2.0,61,0.00,,,0.00,Wunderground v.1.15,2013-03-23 06:35:00,
2013-03-22 22:41:00,-12.0,-22.0,29.99,NW,304,1.0,2.0,60,0.00,,,0.00,Wunderground v.1.15,2013-03-23 06:41:00,
2013-03-22 22:50:00,-12.8,-22.1,29.99,ENE,60,1.0,1.0,62,0.00,,,0.00,Wunderground v.1.15,2013-03-23 06:50:00,
2013-03-22 23:00:00,-12.2,-21.3,30.00,ENE,60,0.0,1.0,63,0.00,,,0.00,Wunderground v.1.15,2013-03-23 07:00:00,
2013-03-22 23:10:00,-11.2,-20.6,30.00,ENE,60,1.0,1.0,62,0.00,,,0.00,Wunderground v.1.15,2013-03-23 07:10:00,
2013-03-22 23:20:00,-10.3,-19.8,29.99,ENE,60,0.0,0.0,62,0.00,,,0.00,Wunderground v.1.15,2013-03-23 07:20:00,
2013-03-22 23:25:00,-12.0,-22.3,29.99,ENE,60,0.0,0.0,59,0.00,,,0.00,Wunderground v.1.15,2013-03-23 07:25:00,
2013-03-22 23:35:00,-13.0,-22.0,29.99,ENE,60,0.0,0.0,63,0.00,,,0.00,Wunderground v.1.15,2013-03-23 07:35:00,
2013-03-22 23:40:00,-13.3,-22.9,29.99,ENE,70,0.0,1.0,61,0.00,,,0.00,Wunderground v.1.15,2013-03-23 07:40:00,
2013-03-22 23:46:00,-14.3,-23.9,30.00,ENE,68,1.0,2.0,61,0.00,,,0.00,Wunderground v.1.15,2013-03-23 07:46:00,
2013-03-22 23:55:00,-15.1,-23.7,30.00,ENE,70,1.0,2.0,64,0.00,,,0.00,Wunderground v.1.15,2013-03-23 07:55:00,